createdAt,value
2022-08-19T04:01:12.701Z,5.15
2022-08-19T04:03:41.295Z,4.88
2022-08-19T04:06:13.550Z,4.45
2022-08-19T04:08:41.578Z,4.35
2022-08-19T04:11:10.351Z,4.80
2022-08-19T04:13:38.748Z,4.57
2022-08-19T04:16:07.585Z,4.57
2022-08-19T04:18:36.588Z,5.05
2022-08-19T04:21:05.013Z,4.78
2022-08-19T04:23:33.537Z,4.00
2022-08-19T04:26:01.460Z,4.50
2022-08-19T04:28:31.162Z,4.22
2022-08-19T04:30:59.438Z,4.63
2022-08-19T04:33:29.475Z,4.00
2022-08-19T04:35:59.193Z,4.32
2022-08-19T04:38:27.020Z,4.63
2022-08-19T04:41:12.354Z,4.68
2022-08-19T04:43:40.528Z,5.35
2022-08-19T04:46:09.033Z,5.32
2022-08-19T04:48:38.001Z,4.70
2022-08-19T04:51:18.269Z,4.97
2022-08-19T04:53:46.086Z,4.63
2022-08-19T04:56:17.500Z,4.50
2022-08-19T04:58:46.818Z,4.70
2022-08-19T05:01:15.138Z,4.72
2022-08-19T05:03:42.784Z,4.07
2022-08-19T05:06:13.251Z,4.80
2022-08-19T05:08:44.174Z,4.38
2022-08-19T05:11:14.398Z,4.07
2022-08-19T05:13:43.215Z,5.35
2022-08-19T05:16:12.032Z,5.03
2022-08-19T05:18:53.777Z,4.63
2022-08-19T05:21:40.703Z,5.28
2022-08-19T05:24:09.927Z,5.93
2022-08-19T05:26:38.104Z,5.53
2022-08-19T05:29:06.238Z,5.35
2022-08-19T05:31:36.699Z,5.70
2022-08-19T05:34:18.170Z,4.30
2022-08-19T05:36:48.561Z,5.80
2022-08-19T05:39:20.347Z,5.38
2022-08-19T05:41:50.388Z,5.07
2022-08-19T05:44:19.130Z,5.10
2022-08-19T05:46:47.952Z,5.25
2022-08-19T05:49:16.568Z,6.05
2022-08-19T05:51:45.397Z,5.22
2022-08-19T05:54:14.336Z,5.20
2022-08-19T05:56:44.381Z,5.88
2022-08-19T05:59:12.660Z,5.93
2022-08-19T06:01:43.000Z,6.35
2022-08-19T06:04:10.846Z,6.57
2022-08-19T06:06:39.006Z,7.10
2022-08-19T06:09:08.757Z,6.63
2022-08-19T06:11:38.840Z,6.53
2022-08-19T06:14:16.579Z,6.70
2022-08-19T06:16:45.465Z,7.20
2022-08-19T06:19:16.608Z,9.68
2022-08-19T06:21:47.537Z,7.88
2022-08-19T06:24:17.857Z,8.50
2022-08-19T06:29:24.726Z,7.68
2022-08-19T06:31:55.002Z,8.60
2022-08-19T06:34:22.825Z,8.43
2022-08-19T06:36:53.293Z,8.02
2022-08-19T06:39:23.180Z,7.60
2022-08-19T06:41:55.597Z,8.05
2022-08-19T06:44:31.935Z,7.82
2022-08-19T06:46:59.681Z,7.40
2022-08-19T06:49:31.833Z,6.93
2022-08-19T06:52:01.920Z,7.78
2022-08-19T06:54:30.819Z,7.65
2022-08-19T06:56:59.029Z,8.88
2022-08-19T06:59:29.026Z,7.53
2022-08-19T07:01:58.448Z,8.95
2022-08-19T07:04:28.017Z,9.00
2022-08-19T07:06:59.900Z,8.38
2022-08-19T07:09:57.955Z,8.05
2022-08-19T07:12:30.661Z,8.25
2022-08-19T07:15:00.546Z,8.80
2022-08-19T07:17:29.779Z,8.00
2022-08-19T07:19:58.942Z,9.80
2022-08-19T07:22:34.745Z,9.70
2022-08-19T07:25:04.478Z,9.07
2022-08-19T07:27:33.699Z,8.25
2022-08-19T07:30:02.848Z,8.65
2022-08-19T07:32:31.609Z,8.65
2022-08-19T07:35:01.695Z,10.15
2022-08-19T07:37:33.085Z,11.73
2022-08-19T07:40:02.020Z,10.63
2022-08-19T07:42:30.444Z,11.70
2022-08-19T07:44:58.689Z,9.63
2022-08-19T07:47:49.270Z,11.32
2022-08-19T07:50:17.086Z,14.00
2022-08-19T07:52:48.818Z,12.38
2022-08-19T07:55:41.685Z,11.15
2022-08-19T07:58:06.755Z,11.75
2022-08-19T08:00:34.509Z,10.25
2022-08-19T08:03:03.419Z,10.43
2022-08-19T08:05:48.661Z,10.15
2022-08-19T08:08:33.921Z,10.30
2022-08-19T08:11:02.299Z,9.85
2022-08-19T08:13:30.079Z,8.90
2022-08-19T08:15:58.168Z,8.40
2022-08-19T08:18:27.462Z,9.73
2022-08-19T08:20:56.148Z,7.90
2022-08-19T08:23:27.278Z,11.70
2022-08-19T08:25:57.985Z,8.13
2022-08-19T08:28:29.575Z,8.40
2022-08-19T08:30:59.046Z,7.90
2022-08-19T08:33:34.817Z,7.80
2022-08-19T08:36:04.201Z,6.82
2022-08-19T08:38:38.350Z,6.85
2022-08-19T08:41:20.339Z,7.07
2022-08-19T08:43:51.832Z,6.68
2022-08-19T08:46:30.507Z,7.40
2022-08-19T08:49:08.272Z,7.60
2022-08-19T08:54:16.142Z,7.22
2022-08-19T08:56:46.931Z,7.85
2022-08-19T08:59:21.183Z,6.82
2022-08-19T09:01:49.357Z,7.30
2022-08-19T09:04:18.544Z,6.32
2022-08-19T09:06:56.862Z,6.55
2022-08-19T09:09:33.357Z,6.88
2022-08-19T09:12:11.889Z,5.75
2022-08-19T09:14:52.332Z,5.78
2022-08-19T09:17:31.674Z,5.82
2022-08-19T09:20:09.249Z,6.63
2022-08-19T09:22:38.362Z,6.22
2022-08-19T09:25:08.586Z,6.53
2022-08-19T09:27:43.132Z,6.38
2022-08-19T09:30:24.741Z,6.35
2022-08-19T09:32:53.924Z,5.47
2022-08-19T09:35:24.989Z,6.57
2022-08-19T09:37:57.755Z,5.70
2022-08-19T09:40:30.013Z,5.95
2022-08-19T09:43:10.094Z,5.32
2022-08-19T09:45:41.614Z,6.28
2022-08-19T09:48:09.658Z,6.85
2022-08-19T09:50:51.564Z,5.88
2022-08-19T09:53:25.204Z,5.93
2022-08-19T09:55:53.621Z,5.78
2022-08-19T09:58:26.094Z,5.72
2022-08-19T10:00:54.578Z,4.72
2022-08-19T10:03:25.608Z,5.45
2022-08-19T10:06:00.740Z,5.65
2022-08-19T10:08:30.404Z,6.13
2022-08-19T10:10:59.265Z,6.03
2022-08-19T10:13:32.827Z,5.70
2022-08-19T10:16:05.866Z,4.90
2022-08-19T10:18:35.172Z,5.00
2022-08-19T10:21:11.594Z,5.03
2022-08-19T10:23:41.078Z,5.80
2022-08-19T10:26:09.420Z,5.38
2022-08-19T10:28:39.083Z,4.65
2022-08-19T10:31:08.410Z,4.80
2022-08-19T10:33:41.706Z,4.50
2022-08-19T10:36:24.923Z,4.72
2022-08-19T10:38:57.030Z,4.80
2022-08-19T10:41:27.824Z,4.47
2022-08-19T10:43:57.485Z,5.25
2022-08-19T10:46:33.389Z,4.50
2022-08-19T10:49:02.381Z,4.22
2022-08-19T10:51:51.173Z,3.90
2022-08-19T10:54:19.282Z,2.97
2022-08-19T10:56:58.026Z,3.75
2022-08-19T10:59:31.469Z,3.80
2022-08-19T11:02:03.725Z,4.10
2022-08-19T11:04:33.085Z,4.10
2022-08-19T11:07:01.972Z,4.88
2022-08-19T11:09:33.937Z,4.10
2022-08-19T11:12:03.012Z,3.10
2022-08-19T11:14:34.014Z,3.65
2022-08-19T11:17:02.749Z,3.17
2022-08-19T11:19:30.942Z,3.63
2022-08-19T11:22:00.303Z,3.75
2022-08-19T11:24:30.600Z,3.15
2022-08-19T11:27:05.400Z,3.22
2022-08-19T11:29:35.255Z,3.67
2022-08-19T11:32:07.289Z,3.70
2022-08-19T11:34:36.241Z,3.50
2022-08-19T11:37:04.532Z,3.15
2022-08-19T11:39:36.332Z,3.22
2022-08-19T11:42:25.138Z,2.90
2022-08-19T11:44:53.428Z,3.30
2022-08-19T11:47:21.469Z,2.90
2022-08-19T11:49:49.256Z,3.60
2022-08-19T11:52:17.158Z,2.97
2022-08-19T11:54:46.097Z,2.90
2022-08-19T11:57:15.739Z,2.88
2022-08-19T11:59:43.307Z,3.15
2022-08-19T12:02:11.629Z,3.58
2022-08-19T12:04:39.314Z,3.00
2022-08-19T12:07:07.443Z,3.58
2022-08-19T12:09:35.390Z,2.80
2022-08-19T12:12:05.555Z,3.30
2022-08-19T12:14:33.180Z,2.88
2022-08-19T12:17:00.980Z,3.10
2022-08-19T12:19:29.184Z,2.35
2022-08-19T12:22:02.360Z,2.88
2022-08-19T12:24:32.904Z,3.00
2022-08-19T12:27:03.121Z,2.35
2022-08-19T12:29:33.255Z,2.78
2022-08-19T12:32:02.103Z,2.60
2022-08-19T12:34:31.737Z,2.72
2022-08-19T12:37:00.096Z,2.38
2022-08-19T12:39:27.787Z,2.78
2022-08-19T12:41:55.797Z,2.75
2022-08-19T12:44:29.357Z,2.33
2022-08-19T12:46:58.848Z,3.75
2022-08-19T12:49:54.711Z,3.70
2022-08-19T12:52:16.580Z,3.60
2022-08-19T12:54:49.237Z,2.80
2022-08-19T12:57:24.490Z,2.85
2022-08-19T13:00:00.321Z,2.60
2022-08-19T13:02:29.670Z,2.60
2022-08-19T13:04:57.757Z,2.67
2022-08-19T13:07:25.413Z,2.53
2022-08-19T13:09:53.330Z,2.28
2022-08-19T13:12:24.936Z,2.58
2022-08-19T13:14:52.979Z,2.70
2022-08-19T13:17:20.861Z,2.60
2022-08-19T13:19:49.853Z,4.35
2022-08-19T13:22:17.769Z,2.90
2022-08-19T13:24:47.444Z,2.70
2022-08-19T13:27:15.973Z,3.72
2022-08-19T13:30:01.952Z,3.40
2022-08-19T13:32:48.966Z,2.38
2022-08-19T13:35:19.030Z,2.63
2022-08-19T13:37:46.598Z,2.50
2022-08-19T13:40:19.015Z,2.60
2022-08-19T13:42:48.932Z,1.80
2022-08-19T13:45:18.831Z,2.70
2022-08-19T13:47:48.142Z,2.22
2022-08-19T13:50:20.408Z,2.10
2022-08-19T13:52:49.260Z,2.08
2022-08-19T13:55:24.821Z,1.65
2022-08-19T13:57:53.814Z,2.30
2022-08-19T14:00:24.770Z,2.15
2022-08-19T14:02:53.799Z,1.77
2022-08-19T14:05:23.357Z,2.72
2022-08-19T14:07:51.385Z,2.30
2022-08-19T14:10:19.769Z,2.42
2022-08-19T14:12:47.431Z,2.55
2022-08-19T14:15:16.606Z,1.80
2022-08-19T14:17:47.453Z,2.22
2022-08-19T14:20:17.789Z,2.20
2022-08-19T14:22:49.786Z,2.30
2022-08-19T14:25:19.880Z,1.90
2022-08-19T14:27:48.307Z,1.67
2022-08-19T14:30:18.885Z,2.40
2022-08-19T14:32:46.724Z,2.30
2022-08-19T14:35:16.174Z,2.08
2022-08-19T14:37:46.272Z,2.42
2022-08-19T14:40:16.958Z,1.92
2022-08-19T14:42:45.717Z,2.55
2022-08-19T14:45:14.340Z,1.85
2022-08-19T14:47:42.001Z,1.77
2022-08-19T14:50:15.288Z,3.40
2022-08-19T14:52:46.643Z,2.50
2022-08-19T14:55:16.216Z,3.03
2022-08-19T14:57:45.005Z,1.88
2022-08-19T15:00:14.640Z,2.30
2022-08-19T15:02:44.909Z,2.08
2022-08-19T15:05:13.156Z,1.77
2022-08-19T15:07:41.795Z,1.85
2022-08-19T15:10:11.801Z,1.58
2022-08-19T15:12:41.668Z,2.55
2022-08-19T15:15:13.588Z,2.42
2022-08-19T15:17:54.328Z,2.13
2022-08-19T15:20:23.669Z,1.50
2022-08-19T15:22:52.187Z,1.73
2022-08-19T15:25:21.169Z,1.80
2022-08-19T15:27:51.048Z,1.98
2022-08-19T15:30:23.165Z,2.17
2022-08-19T15:32:50.916Z,2.33
2022-08-19T15:35:19.368Z,2.17
2022-08-19T15:37:47.294Z,2.05
2022-08-19T15:40:14.951Z,2.15
2022-08-19T15:42:43.421Z,2.17
2022-08-19T15:45:14.159Z,2.40
2022-08-19T15:47:42.433Z,1.92
2022-08-19T15:50:13.173Z,1.80
2022-08-19T15:52:49.449Z,1.85
2022-08-19T15:55:32.653Z,1.60
2022-08-19T15:58:36.538Z,3.83
2022-08-19T16:01:27.394Z,5.15
2022-08-19T16:04:15.855Z,2.85
2022-08-19T16:06:46.118Z,2.75
2022-08-19T16:09:14.217Z,2.53
2022-08-19T16:11:45.753Z,2.00
2022-08-19T16:14:14.415Z,1.67
2022-08-19T16:16:46.544Z,1.95
2022-08-19T16:19:16.515Z,1.83
2022-08-19T16:21:46.011Z,1.88
2022-08-19T16:24:15.311Z,1.40
2022-08-19T16:26:44.129Z,1.67
2022-08-19T16:29:13.351Z,1.50
2022-08-19T16:31:45.995Z,1.50
2022-08-19T16:34:14.880Z,1.77
2022-08-19T16:36:43.385Z,1.30
2022-08-19T16:39:12.483Z,1.50
2022-08-19T16:41:41.216Z,1.60
2022-08-19T16:44:11.586Z,2.20
2022-08-19T16:46:41.550Z,1.10
2022-08-19T16:49:12.318Z,1.33
2022-08-19T16:51:40.484Z,1.08
2022-08-19T16:54:08.718Z,1.80
2022-08-19T16:56:36.779Z,1.20
2022-08-19T16:59:04.896Z,1.08
2022-08-19T17:01:32.610Z,1.58
2022-08-19T17:04:00.277Z,1.27
2022-08-19T17:06:31.018Z,1.70
2022-08-19T17:09:01.074Z,1.52
2022-08-19T17:11:32.872Z,1.33
2022-08-19T17:14:01.978Z,0.95
2022-08-19T17:16:32.483Z,1.45
2022-08-19T17:19:02.978Z,1.48
2022-08-19T17:21:34.532Z,1.30
2022-08-19T17:24:06.101Z,1.25
2022-08-19T17:26:34.216Z,1.23
2022-08-19T17:29:02.485Z,1.52
2022-08-19T17:31:32.574Z,1.40
2022-08-19T17:34:01.643Z,1.45
2022-08-19T17:36:34.776Z,1.50
2022-08-19T17:39:05.319Z,1.60
2022-08-19T17:41:36.907Z,1.52
2022-08-19T17:44:07.299Z,1.73
2022-08-19T17:46:45.332Z,1.80
2022-08-19T17:49:21.830Z,1.65
2022-08-19T17:51:54.324Z,1.38
2022-08-19T17:54:33.924Z,1.20
2022-08-19T17:57:09.756Z,1.30
2022-08-19T17:59:41.150Z,1.48
2022-08-19T18:02:12.458Z,1.15
2022-08-19T18:04:46.841Z,1.30
2022-08-19T18:07:21.971Z,0.95
2022-08-19T18:09:55.643Z,1.15
2022-08-19T18:12:27.310Z,1.98
2022-08-19T18:14:55.806Z,1.60
2022-08-19T18:17:26.285Z,1.85
2022-08-19T18:19:55.070Z,1.30
2022-08-19T18:22:28.492Z,1.60
2022-08-19T18:25:01.123Z,1.45
2022-08-19T18:27:30.897Z,1.05
2022-08-19T18:29:59.932Z,1.60
2022-08-19T18:32:32.039Z,1.52
2022-08-19T18:35:01.120Z,3.42
2022-08-19T18:37:30.933Z,3.15
2022-08-19T18:40:16.846Z,1.48
2022-08-19T18:43:18.233Z,1.65
2022-08-19T18:46:07.117Z,1.67
2022-08-19T18:48:54.100Z,2.35
2022-08-19T18:51:27.735Z,1.60
2022-08-19T18:53:58.881Z,1.33
2022-08-19T18:56:31.900Z,1.80
2022-08-19T18:59:02.792Z,1.73
2022-08-19T19:01:34.197Z,1.02
2022-08-19T19:04:04.952Z,1.40
2022-08-19T19:06:40.206Z,1.20
2022-08-19T19:09:11.220Z,1.50
2022-08-19T19:11:40.939Z,1.35
2022-08-19T19:14:19.205Z,1.48
2022-08-19T19:17:00.405Z,1.65
2022-08-19T19:19:28.212Z,2.88
2022-08-19T19:21:56.554Z,2.97
2022-08-19T19:24:30.412Z,2.00
2022-08-19T19:27:00.610Z,1.92
2022-08-19T19:29:28.557Z,1.73
2022-08-19T19:31:56.868Z,1.77
2022-08-19T19:34:29.831Z,2.15
2022-08-19T19:36:58.104Z,2.60
2022-08-19T19:39:34.024Z,2.22
2022-08-19T19:42:20.388Z,1.60
2022-08-19T19:44:50.364Z,2.33
2022-08-19T19:47:19.228Z,1.70
2022-08-19T19:50:12.796Z,1.75
2022-08-19T19:52:35.385Z,1.95
2022-08-19T19:55:05.466Z,1.67
2022-08-19T19:57:33.156Z,1.52
2022-08-19T20:00:00.793Z,1.80
2022-08-19T20:02:28.539Z,1.42
2022-08-19T20:04:57.065Z,1.88
2022-08-19T20:07:44.654Z,2.05
2022-08-19T20:10:13.298Z,2.15
2022-08-19T20:12:41.029Z,2.47
2022-08-19T20:15:10.049Z,2.45
2022-08-19T20:17:42.407Z,2.20
2022-08-19T20:20:11.371Z,2.60
2022-08-19T20:22:39.732Z,2.40
2022-08-19T20:25:08.278Z,2.58
2022-08-19T20:27:50.693Z,2.55
2022-08-19T20:30:20.817Z,2.78
2022-08-19T20:32:50.672Z,2.78
2022-08-19T20:35:20.948Z,2.20
2022-08-19T20:37:49.301Z,2.63
2022-08-19T20:40:21.638Z,2.53
2022-08-19T20:42:51.407Z,1.92
2022-08-19T20:45:32.178Z,2.50
2022-08-19T20:48:02.269Z,1.90
2022-08-19T20:50:30.168Z,2.40
2022-08-19T20:52:59.465Z,2.38
2022-08-19T20:55:28.803Z,2.28
2022-08-19T20:57:58.564Z,2.45
2022-08-19T21:00:26.372Z,2.45
2022-08-19T21:02:53.922Z,2.25
2022-08-19T21:05:21.604Z,2.50
2022-08-19T21:07:49.246Z,2.85
2022-08-19T21:10:17.862Z,2.30
2022-08-19T21:12:46.191Z,2.58
2022-08-19T21:15:16.668Z,2.72
2022-08-19T21:17:44.266Z,2.42
2022-08-19T21:20:12.226Z,2.38
2022-08-19T21:22:39.966Z,2.45
2022-08-19T21:25:08.852Z,2.40
2022-08-19T21:27:36.412Z,1.95
2022-08-19T21:30:04.947Z,2.30
2022-08-19T21:32:34.032Z,2.00
2022-08-19T21:35:02.140Z,2.35
2022-08-19T21:37:33.373Z,2.72
2022-08-19T21:40:01.458Z,2.33
2022-08-19T21:42:29.096Z,2.33
2022-08-19T21:44:56.832Z,2.47
2022-08-19T21:47:24.530Z,2.55
2022-08-19T21:49:53.533Z,2.42
2022-08-19T21:52:23.237Z,2.25
2022-08-19T21:54:50.899Z,2.63
2022-08-19T21:57:19.061Z,2.70
2022-08-19T21:59:47.759Z,2.47
2022-08-19T22:02:21.577Z,2.03
2022-08-19T22:04:50.808Z,2.13
2022-08-19T22:07:21.323Z,1.85
2022-08-19T22:09:51.574Z,2.78
2022-08-19T22:12:25.792Z,2.20
2022-08-19T22:14:54.355Z,2.50
2022-08-19T22:17:23.232Z,2.25
2022-08-19T22:19:52.298Z,3.10
2022-08-19T22:22:26.491Z,2.88
2022-08-19T22:24:55.604Z,2.65
2022-08-19T22:27:23.887Z,2.38
2022-08-19T22:29:52.588Z,2.38
2022-08-19T22:32:26.708Z,2.75
2022-08-19T22:34:58.349Z,2.50
2022-08-19T22:37:29.100Z,2.22
2022-08-19T22:39:56.956Z,3.17
2022-08-19T22:42:25.679Z,2.13
2022-08-19T22:45:00.036Z,2.60
2022-08-19T22:47:29.491Z,2.05
2022-08-19T22:50:01.994Z,1.80
2022-08-19T22:52:30.015Z,2.50
2022-08-19T22:55:01.301Z,2.67
2022-08-19T22:57:29.449Z,2.55
2022-08-19T22:59:58.869Z,2.78
2022-08-19T23:02:31.467Z,2.50
2022-08-19T23:05:02.115Z,2.60
2022-08-19T23:07:32.203Z,3.00
2022-08-19T23:10:00.147Z,2.58
2022-08-19T23:12:30.536Z,2.67
2022-08-19T23:15:03.297Z,2.92
2022-08-19T23:17:30.944Z,2.92
2022-08-19T23:19:59.788Z,3.15
2022-08-19T23:22:29.361Z,2.75
2022-08-19T23:25:02.504Z,3.03
2022-08-19T23:27:46.636Z,2.92
2022-08-19T23:30:29.364Z,3.10
2022-08-19T23:32:58.896Z,2.92
2022-08-19T23:35:28.312Z,2.55
2022-08-19T23:37:57.078Z,3.03
2022-08-19T23:40:26.316Z,2.90
2022-08-19T23:42:54.646Z,2.83
2022-08-19T23:45:24.904Z,3.10
2022-08-19T23:47:53.749Z,3.33
2022-08-19T23:50:21.754Z,2.88
2022-08-19T23:52:51.229Z,3.30
2022-08-19T23:55:20.776Z,2.65
2022-08-19T23:57:50.024Z,2.90
